• Join FlightAware (Why Join?)
  • Login
  • US Flag 
09:48PM EDT


 

Airport Tracker/Info


-or-


 

Live Flight TrackerFlight Track Log ✈ CTL15 ✈ 03-May-2013 ✈ KMGY - KBKL

Flight Track Log - Related Links

Times and Time Zones

All times are in EDT time to prevent confusion due to time zone crossing. See the CTL15 flight status page for this flight to view local times or setup timezone preferences in your user account.

Time Position Orientation Groundspeed Altitude Reporting Facility
EDT Latitude Longitude Course Direction KTS MPH feet Rate Location/Type
08:40PM 39.6086 -84.2003 49° Northeast 139 160 1,600  Level Indianapolis Center
08:41PM 39.6272 -84.1758 45° Northeast 127 146 2,500 1,080 Climbing Indianapolis Center
08:42PM 39.6422 -84.1528 50° Northeast 119 137 3,400 1,020 Climbing Indianapolis Center
08:43PM 39.6622 -84.1244 47° Northeast 113 130 4,500 1,080 Climbing Indianapolis Center
08:44PM 39.6861 -84.0933 45° Northeast 106 122 5,700 1,020 Climbing Indianapolis Center
08:45PM 39.7072 -84.0644 46° Northeast 107 123 6,600 900 Climbing Indianapolis Center
08:46PM 39.7647 -83.9365 49° Northeast  Level FlightAware Approximate
08:46PM 39.7283 -84.0372 45° Northeast 113 130 7,500  Level Indianapolis Center
08:47PM 39.7514 -84.0075 45° Northeast 117 135 8,200 660 Climbing Indianapolis Center
08:48PM 39.7839 -83.9683 43° Northeast 126 145 9,000 360 Climbing Indianapolis Center
08:49PM 39.8067 -83.9358 48° Northeast 133 153 9,100  Climbing Indianapolis Center
08:50PM 39.8419 -83.8917 44° Northeast 171 197 9,100  Level Indianapolis Center
08:51PM 39.8769 -83.8472 44° Northeast 176 203 9,100  Level Indianapolis Center
08:52PM 39.9092 -83.8078 43° Northeast 173 199 9,100  Level Indianapolis Center
08:53PM 39.9439 -83.7631 45° Northeast 175 201 9,100  Level Indianapolis Center
08:54PM 39.9786 -83.7186 44° Northeast 173 199 9,100  Level Indianapolis Center
08:55PM 40.0136 -83.6711 46° Northeast 175 201 9,100  Level Indianapolis Center
08:56PM 40.0458 -83.6317 43° Northeast 176 203 9,100  Level Indianapolis Center
08:56PM 40.0536 -83.6225 42° Northeast 176 203 9,100  Level Indianapolis Center
08:57PM 40.0781 -83.5919 44° Northeast 179 206 9,100  Level Indianapolis Center
08:57PM 40.0892 -83.5761 47° Northeast 178 205 9,100 -120 Level Indianapolis Center
08:58PM 40.1128 -83.5472 43° Northeast 174 200 9,000  Descending Indianapolis Center
08:58PM 40.1236 -83.5308 49° Northeast 174 200 9,100 60 Climbing Indianapolis Center
08:59PM 40.1453 -83.5022 45° Northeast 173 199 9,100 -120 Level Indianapolis Center
08:59PM 40.1583 -83.4861 43° Northeast 174 200 9,000  Descending Indianapolis Center
09:00PM 40.1778 -83.4597 46° Northeast 173 199 9,100 60 Climbing Indianapolis Center
09:00PM 40.1933 -83.4408 43° Northeast 174 200 9,100  Level Indianapolis Center
09:01PM 40.2125 -83.4147 46° Northeast 175 201 9,100 -120 Level Indianapolis Center
09:01PM 40.2275 -83.3956 44° Northeast 173 199 9,000  Descending Indianapolis Center
09:02PM 40.2492 -83.3672 45° Northeast 174 200 9,100 60 Climbing Indianapolis Center
09:02PM 40.2625 -83.3503 44° Northeast 174 200 9,100  Level Indianapolis Center
09:03PM 40.2839 -83.3222 45° Northeast 172 198 9,100  Level Indianapolis Center
09:03PM 40.3019 -83.2983 45° Northeast 172 198 9,100  Level Indianapolis Center
09:04PM 40.3183 -83.2772 44° Northeast 171 197 9,100  Level Indianapolis Center
09:04PM 40.3358 -83.2547 44° Northeast 169 194 9,100 -120 Level Indianapolis Center
09:05PM 40.3703 -83.2086 46° Northeast 174 200 9,000 -60 Descending Indianapolis Center
09:06PM 40.4058 -83.1631 44° Northeast 176 203 9,000  Level Indianapolis Center
09:07PM 40.4403 -83.1181 45° Northeast 174 200 9,000  Level Indianapolis Center
09:08PM 40.4756 -83.0733 44° Northeast 174 200 9,000  Level Indianapolis Center
09:09PM 40.5097 -83.0258 47° Northeast 176 203 9,000  Level Indianapolis Center
09:10PM 40.5464 -82.9803 43° Northeast 175 201 9,000  Level Indianapolis Center
09:11PM 40.5811 -82.9336 46° Northeast 176 203 9,000  Level Indianapolis Center
09:12PM 40.6147 -82.8878 46° Northeast 173 199 9,000  Level Indianapolis Center
09:14PM 40.6472 -82.8464 44° Northeast 169 194 9,000  Level Cleveland Center
09:15PM 40.6836 -82.7983 45° Northeast 169 194 9,000  Level Cleveland Center
09:16PM 40.7156 -82.7500 49° Northeast 169 194 9,000  Level Cleveland Center
09:17PM 40.7456 -82.7072 47° Northeast 164 189 9,000 60 Level Cleveland Center
09:17PM 40.7689 -82.6858 35° Northeast 167 192 9,100  Climbing Cleveland Center
09:18PM 40.7819 -82.6672 47° Northeast 164 189 9,000  Descending Cleveland Center
09:18PM 40.8031 -82.6403 44° Northeast 167 192 9,100  Climbing Cleveland Center
09:19PM 40.8139 -82.6189 56° Northeast 164 189 9,000  Descending Cleveland Center
09:19PM 40.8372 -82.5975 35° Northeast 168 193 9,100 60 Climbing Cleveland Center
09:20PM 40.8481 -82.5786 53° Northeast 169 194 9,100  Level Cleveland Center
09:20PM 40.8694 -82.5464 49° Northeast 171 197 9,100  Level Cleveland Center
09:21PM 40.8803 -82.5331 43° Northeast 169 194 9,100  Level Cleveland Center
09:22PM 40.9183 -82.4928 39° Northeast 169 194 9,100  Level Cleveland Center
09:23PM 40.9544 -82.4581 36° Northeast 174 200 9,100  Level Cleveland Center
09:23PM 40.9903 -82.4233 36° Northeast 180 207 9,100  Level Cleveland Center
09:24PM 41.0264 -82.3858 38° Northeast 180 207 9,100  Level Cleveland Center
09:25PM 41.0328 -82.3750 52° Northeast 176 203 9,100 -300 Level Cleveland Center
09:25PM 41.0667 -82.3403 38° Northeast 187 215 8,800 -300 Descending Cleveland Center
09:26PM 41.0731 -82.3322 44° Northeast 181 208 8,800 -240 Level Cleveland Center
09:26PM 41.1092 -82.2944 38° Northeast 194 223 8,600 -300 Descending Cleveland Center
09:27PM 41.1536 -82.2406 42° Northeast 199 229 8,300 -420 Descending Cleveland Center
09:28PM 41.1961 -82.1919 41° Northeast 197 227 7,800 -360 Descending Cleveland Center
09:29PM 41.2322 -82.1403 47° Northeast 192 221 7,600 -300 Descending Cleveland Center
09:30PM 41.2725 -82.0889 44° Northeast 192 221 7,200 -480 Descending Cleveland Center
09:32PM 41.3108 -82.0317 48° Northeast 193 222 6,700 -540 Descending Cleveland Center
09:32PM 41.3428 -81.9825 49° Northeast 196 226 6,200 -600 Descending Cleveland Center
09:33PM 41.3789 -81.9225 51° Northeast 199 229 5,600 -840 Descending Cleveland Center
09:34PM 41.4192 -81.8653 47° Northeast 206 237 4,500 -1,320 Descending Cleveland Center
09:35PM 41.4553 -81.8106 49° Northeast 212 244 3,000 -1,440 Descending Cleveland Center
09:36PM 41.4828 -81.7556 56° Northeast 175 201 1,700 -1,020 Descending Cleveland Center
09:37PM 41.5042 -81.7144 55° Northeast 116 133 1,000 -720 Descending Cleveland Center
09:39PM 41.5175 -81.6833 48° Northeast  Level Estimated
09:46PM 41.5175 -81.6833 48° Northeast  Level Estimated
09:47PM 41.5175 -81.6833 48° Northeast  Level Estimated
09:48PM 41.5175 -81.6833 48° Northeast  Level Estimated
09:49PM 41.5175 -81.6833 48° Northeast  Level Estimated
09:50PM 41.5175 -81.6833 48° Northeast  Level Estimated